Time;durP1;ratioP1;P1;durP2;ratioP2;P2;SDS_P1;SDS_P2;PMS_P1;PMS_P2;Temp;Humidity;BMP_temperature;BMP_pressure;BME280_temperature;BME280_humidity;BME280_pressure;Samples;Min_cycle;Max_cycle;Signal;HPM_P1;HPM_P2
2022/11/21 00:00:27;;;;;;;;;;;;;;;7.04;100.00;99930.34;6257011;22;19911;-84
2022/11/21 00:02:52;;;;;;;;;;;;;;;6.93;100.00;99925.31;6300935;22;19892;-84
2022/11/21 00:05:18;;;;;;;;;;;;;;;6.96;100.00;99917.16;6277865;22;19911;-84
2022/11/21 00:07:44;;;;;;;;;;;;;;;6.82;100.00;99915.88;6277049;22;19911;-83
2022/11/21 00:10:10;;;;;;;;;;;;;;;7.05;100.00;99921.47;6277381;22;19911;-85
2022/11/21 00:12:36;;;;;;;;;;;;;;;7.02;100.00;99924.44;6277548;22;19915;-85
2022/11/21 00:15:01;;;;;;;;;;;;;;;6.84;100.00;99923.63;6276910;22;19922;-84
2022/11/21 00:17:26;;;;;;;;;;;;;;;6.98;100.00;99923.91;6250197;22;19915;-86
2022/11/21 00:19:52;;;;;;;;;;;;;;;6.90;100.00;99925.63;6277583;22;19918;-86
2022/11/21 00:22:17;;;;;;;;;;;;;;;6.40;100.00;99928.81;6277003;22;20327;-86
2022/11/21 00:24:43;;;;;;;;;;;;;;;6.19;100.00;99946.72;6276833;22;20315;-85
2022/11/21 00:27:08;;;;;;;;;;;;;;;6.07;100.00;99945.25;6280782;22;20280;-84
2022/11/21 00:29:33;;;;;;;;;;;;;;;6.22;100.00;99936.72;6278665;22;19986;-84
2022/11/21 00:31:59;;;;;;;;;;;;;;;6.52;100.00;99932.91;6277886;22;19912;-84
2022/11/21 00:34:24;;;;;;;;;;;;;;;6.51;100.00;99925.97;6277690;22;20372;-85
2022/11/21 00:36:49;;;;;;;;;;;;;;;6.59;100.00;99923.44;6278020;22;19913;-84
2022/11/21 00:39:15;;;;;;;;;;;;;;;6.39;100.00;99927.19;6278080;22;20341;-84
2022/11/21 00:41:40;;;;;;;;;;;;;;;6.26;100.00;99932.00;6277553;22;19993;-85
2022/11/21 00:44:06;;;;;;;;;;;;;;;6.08;100.00;99929.34;6277262;22;19911;-85
2022/11/21 00:46:31;;;;;;;;;;;;;;;5.87;100.00;99935.81;6251006;22;19930;-85
2022/11/21 00:48:57;;;;;;;;;;;;;;;5.93;100.00;99945.75;6250134;22;19914;-84
2022/11/21 00:51:22;;;;;;;;;;;;;;;6.09;100.00;99953.84;6277986;22;19939;-84
2022/11/21 00:53:47;;;;;;;;;;;;;;;6.30;100.00;99949.13;6277550;22;20302;-84
2022/11/21 00:56:13;;;;;;;;;;;;;;;6.11;100.00;99955.34;6250617;22;19933;-84
2022/11/21 00:58:38;;;;;;;;;;;;;;;5.96;100.00;99950.72;6250663;22;19915;-83
2022/11/21 01:01:14;;;;;;;;;;;;;;;5.93;100.00;99949.19;6277817;22;20331;-83
2022/11/21 01:03:39;;;;;;;;;;;;;;;5.98;100.00;99939.06;6250834;22;19911;-86
2022/11/21 01:06:06;;;;;;;;;;;;;;;6.04;100.00;99937.66;6277610;22;20243;-86
2022/11/21 01:08:33;;;;;;;;;;;;;;;5.91;100.00;99922.22;6250721;22;19911;-86
2022/11/21 01:11:01;;;;;;;;;;;;;;;6.01;100.00;99923.00;6278111;22;20242;-86
2022/11/21 01:13:26;;;;;;;;;;;;;;;5.89;100.00;99928.63;6278103;22;19926;-83
2022/11/21 01:15:52;;;;;;;;;;;;;;;6.01;100.00;99935.31;6251021;22;19911;-86
2022/11/21 01:18:17;;;;;;;;;;;;;;;6.09;100.00;99932.78;6277494;22;20334;-85
2022/11/21 01:20:42;;;;;;;;;;;;;;;6.14;100.00;99935.78;6278517;22;19938;-85
2022/11/21 01:23:08;;;;;;;;;;;;;;;5.93;100.00;99937.88;6277720;22;19938;-85
2022/11/21 01:25:34;;;;;;;;;;;;;;;5.87;100.00;99930.53;6283180;22;20237;-84
2022/11/21 01:27:59;;;;;;;;;;;;;;;6.00;100.00;99925.78;6300638;22;19903;-85
2022/11/21 01:30:24;;;;;;;;;;;;;;;6.05;100.00;99923.53;6252542;22;19911;-85
2022/11/21 01:32:53;;;;;;;;;;;;;;;6.03;100.00;99946.53;6277185;22;19994;-84
2022/11/21 01:35:18;;;;;;;;;;;;;;;5.79;100.00;99935.69;6250283;22;19911;-84
2022/11/21 01:37:47;;;;;;;;;;;;;;;6.01;100.00;99938.78;6277164;22;19958;-86
2022/11/21 01:40:13;;;;;;;;;;;;;;;5.93;100.00;99935.25;6279249;22;19919;-83
2022/11/21 01:42:47;;;;;;;;;;;;;;;6.04;100.00;99937.66;6279904;22;19968;-84
2022/11/21 01:45:31;;;;;;;;;;;;;;;6.01;100.00;99932.69;6278642;22;19915;-85
2022/11/21 01:47:57;;;;;;;;;;;;;;;6.12;100.00;99914.06;6278767;22;19911;-84
2022/11/21 01:50:22;;;;;;;;;;;;;;;6.21;100.00;99928.97;6278788;22;20243;-86
2022/11/21 01:52:47;;;;;;;;;;;;;;;6.09;100.00;99935.41;6278691;22;19918;-86
2022/11/21 01:55:13;;;;;;;;;;;;;;;5.67;100.00;99930.63;6278489;22;19942;-84
2022/11/21 01:57:42;;;;;;;;;;;;;;;5.45;100.00;99930.16;6278669;22;19911;-84
2022/11/21 02:00:21;;;;;;;;;;;;;;;5.56;100.00;99922.94;6278794;22;19914;-84
2022/11/21 02:02:50;;;;;;;;;;;;;;;5.70;100.00;99917.19;6253524;22;19935;-84
2022/11/21 02:05:18;;;;;;;;;;;;;;;5.85;100.00;99911.44;6262140;22;19954;-85
2022/11/21 02:07:45;;;;;;;;;;;;;;;5.89;100.00;99911.03;6294944;22;19918;-85
2022/11/21 02:10:11;;;;;;;;;;;;;;;6.05;100.00;99913.00;6301524;22;19951;-84
2022/11/21 02:12:44;;;;;;;;;;;;;;;6.02;100.00;99913.31;6303871;22;19911;-85
2022/11/21 02:15:10;;;;;;;;;;;;;;;5.94;100.00;99918.47;6303523;22;19918;-86
2022/11/21 02:17:35;;;;;;;;;;;;;;;5.81;100.00;99910.06;6293212;22;19922;-84
2022/11/21 02:20:05;;;;;;;;;;;;;;;5.51;100.00;99912.00;6280528;22;19911;-83
2022/11/21 02:22:30;;;;;;;;;;;;;;;5.39;100.00;99904.47;6280352;22;19982;-85
2022/11/21 02:24:56;;;;;;;;;;;;;;;5.37;100.00;99909.84;6252953;22;19912;-84
2022/11/21 02:27:22;;;;;;;;;;;;;;;5.41;100.00;99903.34;6252637;22;20328;-84
2022/11/21 02:29:48;;;;;;;;;;;;;;;5.21;100.00;99905.19;6279585;22;19918;-84
2022/11/21 02:32:20;;;;;;;;;;;;;;;5.45;100.00;99898.63;6278917;22;19998;-84
2022/11/21 02:34:46;;;;;;;;;;;;;;;5.52;100.00;99900.53;6278947;22;19941;-84
2022/11/21 02:37:11;;;;;;;;;;;;;;;5.52;100.00;99897.06;6278312;22;19953;-85
2022/11/21 02:39:36;;;;;;;;;;;;;;;5.61;100.00;99899.66;6278622;22;19911;-85
2022/11/21 02:42:22;;;;;;;;;;;;;;;5.49;100.00;99885.06;6278856;22;20231;-86
2022/11/21 02:44:53;;;;;;;;;;;;;;;5.42;100.00;99878.72;6251265;22;20303;-84
2022/11/21 02:47:20;;;;;;;;;;;;;;;5.46;100.00;99861.69;6278369;22;19911;-84
2022/11/21 02:49:55;;;;;;;;;;;;;;;5.49;100.00;99850.91;6280517;22;19907;-84
2022/11/21 02:52:20;;;;;;;;;;;;;;;5.51;100.00;99853.34;6295756;22;19943;-83
2022/11/21 02:54:45;;;;;;;;;;;;;;;5.46;100.00;99858.25;6293045;22;19961;-85
2022/11/21 02:57:11;;;;;;;;;;;;;;;5.38;100.00;99866.00;6277729;22;19921;-84
2022/11/21 02:59:36;;;;;;;;;;;;;;;5.59;100.00;99863.97;6277676;22;19911;-84
2022/11/21 03:02:02;;;;;;;;;;;;;;;5.72;100.00;99869.72;6278415;22;19915;-85
2022/11/21 03:04:27;;;;;;;;;;;;;;;5.73;100.00;99872.19;6277794;22;19911;-86
2022/11/21 03:06:53;;;;;;;;;;;;;;;5.80;100.00;99876.88;6278555;22;20314;-85
2022/11/21 03:09:18;;;;;;;;;;;;;;;5.42;100.00;99867.38;6278305;22;19911;-85
2022/11/21 03:11:43;;;;;;;;;;;;;;;5.23;100.00;99865.66;6278503;22;19922;-85
2022/11/21 03:14:09;;;;;;;;;;;;;;;4.94;100.00;99859.69;6277679;22;19913;-84
2022/11/21 03:16:34;;;;;;;;;;;;;;;4.80;100.00;99862.75;6277747;22;19911;-85
2022/11/21 03:19:00;;;;;;;;;;;;;;;4.82;100.00;99863.44;6278008;22;20232;-85
2022/11/21 03:21:25;;;;;;;;;;;;;;;4.82;100.00;99868.69;6278337;22;19964;-83
2022/11/21 03:23:50;;;;;;;;;;;;;;;4.63;100.00;99864.31;6277654;22;19917;-84
2022/11/21 03:26:16;;;;;;;;;;;;;;;4.29;100.00;99861.28;6278103;22;19911;-84
2022/11/21 03:28:41;;;;;;;;;;;;;;;4.25;100.00;99853.81;6277849;22;19907;-84
2022/11/21 03:31:07;;;;;;;;;;;;;;;4.21;100.00;99842.78;6277861;22;20364;-84
2022/11/21 03:33:32;;;;;;;;;;;;;;;4.13;100.00;99853.13;6277830;22;19903;-84
2022/11/21 03:35:58;;;;;;;;;;;;;;;4.26;100.00;99855.47;6277495;22;19943;-86
2022/11/21 03:38:23;;;;;;;;;;;;;;;4.30;100.00;99857.69;6278146;22;19944;-84
2022/11/21 03:40:48;;;;;;;;;;;;;;;4.30;100.00;99867.34;6277256;22;19943;-83
2022/11/21 03:43:14;;;;;;;;;;;;;;;4.38;100.00;99859.59;6277533;22;20227;-84
2022/11/21 03:45:39;;;;;;;;;;;;;;;4.45;100.00;99861.53;6278682;22;19912;-83
2022/11/21 03:48:05;;;;;;;;;;;;;;;4.42;100.00;99866.25;6281573;22;19922;-84
2022/11/21 03:50:30;;;;;;;;;;;;;;;4.47;100.00;99875.38;6277934;22;20006;-84
2022/11/21 03:52:55;;;;;;;;;;;;;;;4.52;100.00;99878.38;6250160;22;19911;-85
2022/11/21 03:55:21;;;;;;;;;;;;;;;4.41;100.00;99886.41;6277247;22;19915;-84
2022/11/21 03:57:46;;;;;;;;;;;;;;;4.37;100.00;99884.22;6277625;22;19911;-85
2022/11/21 04:00:12;;;;;;;;;;;;;;;4.45;100.00;99879.91;6277786;22;19917;-87
2022/11/21 04:02:38;;;;;;;;;;;;;;;4.53;100.00;99885.31;6277280;22;20348;-85
2022/11/21 04:05:04;;;;;;;;;;;;;;;4.49;100.00;99880.47;6277385;22;19942;-85
2022/11/21 04:07:29;;;;;;;;;;;;;;;4.41;100.00;99896.88;6277249;22;19938;-86
2022/11/21 04:09:54;;;;;;;;;;;;;;;4.43;100.00;99894.97;6280406;22;19911;-85
2022/11/21 04:12:20;;;;;;;;;;;;;;;4.37;100.00;99895.53;6281205;22;20235;-85
2022/11/21 04:14:45;;;;;;;;;;;;;;;4.43;100.00;99889.72;6251233;22;19986;-86
2022/11/21 04:17:10;;;;;;;;;;;;;;;4.30;100.00;99886.56;6289340;22;19914;-82
2022/11/21 04:19:36;;;;;;;;;;;;;;;4.30;100.00;99904.91;6269518;22;19911;-85
2022/11/21 04:22:01;;;;;;;;;;;;;;;4.18;100.00;99906.81;6277634;22;20326;-85
2022/11/21 04:24:27;;;;;;;;;;;;;;;4.00;100.00;99907.63;6276897;22;20326;-84
2022/11/21 04:26:55;;;;;;;;;;;;;;;3.92;100.00;99915.31;6276833;22;19915;-84
2022/11/21 04:29:20;;;;;;;;;;;;;;;3.70;100.00;99900.66;6250051;22;20246;-85
2022/11/21 04:31:46;;;;;;;;;;;;;;;3.51;100.00;99898.78;6276937;22;19950;-85
2022/11/21 04:34:11;;;;;;;;;;;;;;;3.46;100.00;99894.91;6277229;22;20326;-86
2022/11/21 04:36:36;;;;;;;;;;;;;;;3.59;100.00;99885.03;6249989;22;19946;-85
2022/11/21 04:39:03;;;;;;;;;;;;;;;3.79;100.00;99884.13;6277084;22;20322;-85
2022/11/21 04:41:28;;;;;;;;;;;;;;;3.93;100.00;99877.69;6277263;22;19922;-84
2022/11/21 04:43:53;;;;;;;;;;;;;;;4.06;100.00;99881.69;6250374;22;19987;-85
2022/11/21 04:46:19;;;;;;;;;;;;;;;4.06;100.00;99880.88;6276895;22;19922;-87
2022/11/21 04:48:45;;;;;;;;;;;;;;;3.87;100.00;99886.09;6277734;22;19961;-86
2022/11/21 04:51:11;;;;;;;;;;;;;;;3.86;100.00;99889.66;6277930;22;20281;-84
2022/11/21 04:53:36;;;;;;;;;;;;;;;4.11;100.00;99887.34;6278299;22;20399;-83
2022/11/21 04:56:04;;;;;;;;;;;;;;;4.28;100.00;99880.59;6278074;22;19934;-86
2022/11/21 04:58:29;;;;;;;;;;;;;;;4.20;100.00;99867.34;6279171;22;19926;-87
2022/11/21 05:00:55;;;;;;;;;;;;;;;4.38;100.00;99865.69;6286981;22;19989;-84
2022/11/21 05:03:20;;;;;;;;;;;;;;;4.30;100.00;99862.94;6287986;22;19934;-86
2022/11/21 05:05:48;;;;;;;;;;;;;;;4.41;100.00;99854.13;6288762;22;20246;-86
2022/11/21 05:08:13;;;;;;;;;;;;;;;4.51;100.00;99857.53;6299254;22;19938;-85
2022/11/21 05:13:23;;;;;;;;;;;;;;;4.46;100.00;99852.72;6303745;22;19919;-83
2022/11/21 05:15:55;;;;;;;;;;;;;;;4.64;100.00;99855.44;6306681;22;19993;-84
2022/11/21 05:18:20;;;;;;;;;;;;;;;4.73;100.00;99848.53;6306571;22;19922;-82
2022/11/21 05:20:45;;;;;;;;;;;;;;;4.59;100.00;99842.75;6298962;22;19922;-86
2022/11/21 05:23:11;;;;;;;;;;;;;;;4.65;100.00;99842.19;6297054;22;19911;-84
2022/11/21 05:25:36;;;;;;;;;;;;;;;4.54;100.00;99834.47;6291704;22;19907;-84
2022/11/21 05:28:02;;;;;;;;;;;;;;;4.61;100.00;99824.22;6293771;22;19922;-86
2022/11/21 05:30:27;;;;;;;;;;;;;;;4.67;100.00;99819.25;6256157;22;20299;-84
2022/11/21 05:32:52;;;;;;;;;;;;;;;4.72;100.00;99824.06;6281740;22;19915;-86
2022/11/21 05:35:18;;;;;;;;;;;;;;;4.68;100.00;99828.78;6254013;22;19911;-87
2022/11/21 05:37:46;;;;;;;;;;;;;;;4.80;100.00;99828.63;6254429;22;19981;-86
2022/11/21 05:40:12;;;;;;;;;;;;;;;4.65;100.00;99830.84;6282413;22;19911;-83
2022/11/21 05:45:32;;;;;;;;;;;;;;;4.41;100.00;99839.16;6258582;22;19957;-85
2022/11/21 05:47:57;;;;;;;;;;;;;;;4.32;100.00;99839.19;6253595;22;19919;-87
2022/11/21 05:50:22;;;;;;;;;;;;;;;4.09;100.00;99849.97;6287050;22;19915;-80
2022/11/21 05:52:48;;;;;;;;;;;;;;;3.85;100.00;99851.31;6282084;22;20007;-85
2022/11/21 05:55:14;;;;;;;;;;;;;;;3.50;100.00;99847.38;6288365;22;20357;-84
2022/11/21 05:57:39;;;;;;;;;;;;;;;3.40;100.00;99851.75;6282592;22;20346;-80
2022/11/21 06:00:05;;;;;;;;;;;;;;;3.48;100.00;99859.75;6282081;22;19911;-84
2022/11/21 06:05:14;;;;;;;;;;;;;;;3.26;100.00;99864.38;6283079;22;19911;-85
2022/11/21 06:07:39;;;;;;;;;;;;;;;3.43;100.00;99872.44;6255121;22;19911;-85
2022/11/21 06:10:05;;;;;;;;;;;;;;;3.45;100.00;99865.28;6283730;22;19907;-83
2022/11/21 06:12:30;;;;;;;;;;;;;;;3.72;100.00;99862.03;6282709;22;19962;-87
2022/11/21 06:14:56;;;;;;;;;;;;;;;3.73;100.00;99862.88;6254554;22;20032;-87
2022/11/21 06:17:21;;;;;;;;;;;;;;;3.73;100.00;99876.81;6253513;22;19907;-86
2022/11/21 06:19:47;;;;;;;;;;;;;;;3.44;100.00;99883.75;6280750;22;19915;-86
2022/11/21 06:22:12;;;;;;;;;;;;;;;3.26;100.00;99880.91;6280120;22;19914;-85
2022/11/21 06:24:37;;;;;;;;;;;;;;;3.29;100.00;99875.41;6278596;22;19946;-83
2022/11/21 06:27:03;;;;;;;;;;;;;;;3.34;100.00;99886.34;6279018;22;20334;-85
2022/11/21 06:29:28;;;;;;;;;;;;;;;3.79;100.00;99891.16;6279205;22;19911;-83
2022/11/21 06:31:54;;;;;;;;;;;;;;;3.83;100.00;99895.19;6275797;22;19937;-80
2022/11/21 06:34:20;;;;;;;;;;;;;;;3.80;100.00;99895.44;6277727;22;19980;-86
2022/11/21 06:36:45;;;;;;;;;;;;;;;3.91;100.00;99897.97;6278709;22;20353;-89
2022/11/21 06:39:11;;;;;;;;;;;;;;;3.82;100.00;99893.50;6255449;22;19915;-85
2022/11/21 06:41:42;;;;;;;;;;;;;;;4.16;100.00;99886.94;6281464;22;19915;-85
2022/11/21 06:44:08;;;;;;;;;;;;;;;4.36;100.00;99888.63;6252967;22;20196;-86
2022/11/21 06:46:33;;;;;;;;;;;;;;;4.72;100.00;99891.50;6280273;22;19910;-87
2022/11/21 06:48:59;;;;;;;;;;;;;;;5.24;100.00;99890.16;6279338;22;20250;-85
2022/11/21 06:51:24;;;;;;;;;;;;;;;5.64;100.00;99896.72;6278832;22;19907;-83
2022/11/21 06:53:57;;;;;;;;;;;;;;;5.98;100.00;99904.06;6283209;22;19911;-83
2022/11/21 06:56:24;;;;;;;;;;;;;;;5.97;100.00;99905.03;6290804;22;19915;-86
2022/11/21 06:58:50;;;;;;;;;;;;;;;6.10;100.00;99906.31;6294131;22;19911;-84
2022/11/21 07:01:15;;;;;;;;;;;;;;;6.74;100.00;99900.00;6297321;22;19937;-88
2022/11/21 07:03:41;;;;;;;;;;;;;;;7.28;100.00;99906.81;6300565;22;19917;-86
2022/11/21 07:06:07;;;;;;;;;;;;;;;8.29;100.00;99908.53;6300526;22;19960;-86
2022/11/21 07:08:34;;;;;;;;;;;;;;;8.38;100.00;99907.56;6287852;22;19922;-84
2022/11/21 07:11:01;;;;;;;;;;;;;;;8.79;100.00;99914.53;6257704;22;20251;-84
2022/11/21 07:13:27;;;;;;;;;;;;;;;9.53;100.00;99908.13;6278408;22;19911;-84
2022/11/21 07:15:53;;;;;;;;;;;;;;;9.57;100.00;99908.63;6278175;22;19918;-87
2022/11/21 07:18:19;;;;;;;;;;;;;;;8.50;100.00;99908.06;6276854;22;20126;-84
2022/11/21 07:20:45;;;;;;;;;;;;;;;8.62;100.00;99907.56;6277391;22;20295;-84
2022/11/21 07:23:10;;;;;;;;;;;;;;;9.49;100.00;99898.03;6277362;22;19911;-88
2022/11/21 07:25:38;;;;;;;;;;;;;;;9.06;100.00;99888.72;6277703;22;19911;-85
2022/11/21 07:28:07;;;;;;;;;;;;;;;8.27;100.00;99882.28;6276132;22;20253;-86
2022/11/21 07:30:33;;;;;;;;;;;;;;;7.79;100.00;99888.25;6275583;22;20301;-87
2022/11/21 07:33:03;;;;;;;;;;;;;;;8.31;100.00;99872.25;6251325;22;19911;-85
2022/11/21 07:35:29;;;;;;;;;;;;;;;8.34;100.00;99876.38;6277723;22;19907;-86
2022/11/21 07:37:54;;;;;;;;;;;;;;;8.00;100.00;99885.19;6276048;22;19926;-82
2022/11/21 07:40:20;;;;;;;;;;;;;;;7.42;100.00;99879.88;6250926;22;19911;-88
2022/11/21 07:42:45;;;;;;;;;;;;;;;7.54;100.00;99870.69;6276932;22;19921;-86
2022/11/21 07:45:11;;;;;;;;;;;;;;;8.22;100.00;99870.53;6276960;22;19942;-86
2022/11/21 07:47:36;;;;;;;;;;;;;;;8.82;100.00;99861.34;6277357;22;19907;-86
2022/11/21 07:50:02;;;;;;;;;;;;;;;8.50;100.00;99868.47;6276861;22;19993;-89
2022/11/21 07:52:29;;;;;;;;;;;;;;;8.08;100.00;99865.91;6250170;22;20323;-87
2022/11/21 07:54:57;;;;;;;;;;;;;;;7.40;100.00;99873.09;6278397;22;19911;-84
2022/11/21 07:57:23;;;;;;;;;;;;;;;6.67;100.00;99868.19;6251313;22;19919;-85
2022/11/21 07:59:52;;;;;;;;;;;;;;;6.47;100.00;99866.72;6278784;22;19934;-90
2022/11/21 08:02:21;;;;;;;;;;;;;;;6.52;100.00;99875.00;6225786;22;19977;-88
2022/11/21 08:04:47;;;;;;;;;;;;;;;6.54;100.00;99873.03;6277345;22;19946;-87
2022/11/21 08:07:13;;;;;;;;;;;;;;;6.34;100.00;99874.16;6278156;22;19911;-86
2022/11/21 08:09:38;;;;;;;;;;;;;;;6.49;100.00;99875.31;6278205;22;19999;-87
2022/11/21 08:12:04;;;;;;;;;;;;;;;6.54;100.00;99877.47;6259717;22;19958;-83
2022/11/21 08:14:29;;;;;;;;;;;;;;;6.96;100.00;99872.34;6286669;22;20334;-86
2022/11/21 08:16:54;;;;;;;;;;;;;;;6.76;100.00;99874.38;6284055;22;19917;-85
2022/11/21 08:19:20;;;;;;;;;;;;;;;6.79;100.00;99875.84;6255426;22;19911;-86
2022/11/21 08:21:45;;;;;;;;;;;;;;;6.88;100.00;99873.13;6253469;22;20273;-86
2022/11/21 08:24:13;;;;;;;;;;;;;;;7.33;100.00;99886.06;6282538;22;19915;-85
2022/11/21 08:26:39;;;;;;;;;;;;;;;7.12;100.00;99873.28;6279691;22;19929;-87
2022/11/21 08:29:04;;;;;;;;;;;;;;;7.53;100.00;99882.22;6280073;22;19956;-85
2022/11/21 08:31:29;;;;;;;;;;;;;;;7.75;100.00;99886.94;6280522;22;19938;-85
2022/11/21 08:33:56;;;;;;;;;;;;;;;7.95;100.00;99878.75;6270163;22;19934;-85
2022/11/21 08:36:21;;;;;;;;;;;;;;;7.79;100.00;99888.25;6283962;22;19915;-85
2022/11/21 08:38:46;;;;;;;;;;;;;;;8.04;100.00;99886.53;6277835;22;19956;-86
2022/11/21 08:43:59;;;;;;;;;;;;;;;7.94;100.00;99874.44;6278652;22;19946;-88
2022/11/21 08:46:27;;;;;;;;;;;;;;;7.86;100.00;99861.22;6277340;22;19911;-86
2022/11/21 08:48:55;;;;;;;;;;;;;;;7.88;100.00;99869.81;6277425;22;19914;-85
2022/11/21 08:51:21;;;;;;;;;;;;;;;8.03;100.00;99865.56;6250399;22;20266;-85
2022/11/21 08:53:46;;;;;;;;;;;;;;;7.94;100.00;99874.44;6277900;22;19910;-87
2022/11/21 08:56:12;;;;;;;;;;;;;;;8.06;100.00;99867.88;6278360;22;19911;-86
2022/11/21 08:58:38;;;;;;;;;;;;;;;8.04;100.00;99867.22;6277641;22;19911;-87
2022/11/21 09:01:03;;;;;;;;;;;;;;;8.16;100.00;99868.56;6277171;22;19914;-87
2022/11/21 09:03:29;;;;;;;;;;;;;;;8.06;100.00;99866.06;6277020;22;20333;-85
2022/11/21 09:05:55;;;;;;;;;;;;;;;8.06;100.00;99867.88;6249046;22;19914;-86
2022/11/21 09:08:20;;;;;;;;;;;;;;;8.07;100.00;99869.53;6276298;22;19986;-88
2022/11/21 09:10:46;;;;;;;;;;;;;;;8.28;100.00;99864.66;6248458;22;20338;-86
2022/11/21 09:13:11;;;;;;;;;;;;;;;8.20;100.00;99849.59;6274805;22;19911;-85
2022/11/21 09:18:20;;;;;;;;;;;;;;;8.23;100.00;99849.28;6276339;22;20329;-87
2022/11/21 09:20:46;;;;;;;;;;;;;;;8.08;100.00;99839.53;6224568;22;19985;-86
2022/11/21 09:23:13;;;;;;;;;;;;;;;8.27;100.00;99836.56;6276835;22;19985;-87
2022/11/21 09:25:38;;;;;;;;;;;;;;;8.32;100.00;99838.75;6277509;22;19911;-86
2022/11/21 09:28:05;;;;;;;;;;;;;;;8.46;100.00;99838.91;6277050;22;19911;-86
2022/11/21 09:30:30;;;;;;;;;;;;;;;8.56;100.00;99834.28;6250135;22;19935;-86
2022/11/21 09:32:59;;;;;;;;;;;;;;;8.58;100.00;99834.97;6276001;22;20231;-85
2022/11/21 09:35:25;;;;;;;;;;;;;;;8.48;100.00;99828.19;6274696;22;19978;-87
2022/11/21 09:37:50;;;;;;;;;;;;;;;8.51;100.00;99826.06;6276913;22;19989;-85
2022/11/21 09:40:16;;;;;;;;;;;;;;;8.73;100.00;99828.00;6250448;22;19911;-85
2022/11/21 09:43:00;;;;;;;;;;;;;;;8.89;100.00;99828.97;6277496;22;20330;-87
2022/11/21 09:45:30;;;;;;;;;;;;;;;8.80;100.00;99823.72;6277226;22;20307;-85
2022/11/21 09:47:55;;;;;;;;;;;;;;;8.69;100.00;99831.97;6277003;22;19978;-89
2022/11/21 09:50:27;;;;;;;;;;;;;;;8.68;100.00;99830.31;6277364;22;20231;-88
2022/11/21 09:53:11;;;;;;;;;;;;;;;8.72;100.00;99828.16;6277650;22;19917;-87
2022/11/21 09:55:48;;;;;;;;;;;;;;;8.73;100.00;99817.44;6249542;22;19911;-86
2022/11/21 09:58:17;;;;;;;;;;;;;;;8.70;100.00;99816.94;6281281;22;19911;-85
2022/11/21 10:00:42;;;;;;;;;;;;;;;8.65;100.00;99806.06;6260082;22;19939;-88
2022/11/21 10:03:09;;;;;;;;;;;;;;;8.75;100.00;99798.75;6252703;22;19911;-86
2022/11/21 10:05:34;;;;;;;;;;;;;;;8.75;100.00;99794.31;6280797;22;19912;-85
2022/11/21 10:08:03;;;;;;;;;;;;;;;8.54;100.00;99778.19;6252544;22;19911;-87
2022/11/21 10:10:49;;;;;;;;;;;;;;;8.29;100.00;99779.16;6279764;22;19926;-85
2022/11/21 10:13:20;;;;;;;;;;;;;;;8.44;100.00;99782.81;6253441;22;19916;-87
2022/11/21 10:15:49;;;;;;;;;;;;;;;8.42;100.00;99774.22;6280279;22;19911;-88
2022/11/21 10:18:39;;;;;;;;;;;;;;;8.43;100.00;99764.47;6280839;22;19918;-89
2022/11/21 10:21:23;;;;;;;;;;;;;;;8.45;100.00;99758.03;6252253;22;19918;-87
2022/11/21 10:24:13;;;;;;;;;;;;;;;8.36;100.00;99756.41;6252471;22;19915;-86
2022/11/21 10:26:57;;;;;;;;;;;;;;;8.41;100.00;99750.63;6251955;22;19911;-88
2022/11/21 10:29:35;;;;;;;;;;;;;;;8.52;100.00;99755.56;6279307;22;19922;-87
2022/11/21 10:32:12;;;;;;;;;;;;;;;8.58;100.00;99747.81;6252015;22;19993;-86
2022/11/21 10:34:37;;;;;;;;;;;;;;;8.53;100.00;99746.66;6279162;22;19965;-89
2022/11/21 10:37:15;;;;;;;;;;;;;;;8.48;100.00;99747.16;6252819;22;19907;-85
2022/11/21 10:39:42;;;;;;;;;;;;;;;8.59;100.00;99744.16;6278563;22;19911;-87
2022/11/21 10:42:34;;;;;;;;;;;;;;;8.61;100.00;99728.97;6279705;22;19915;-89
2022/11/21 10:45:15;;;;;;;;;;;;;;;8.80;100.00;99728.59;6226479;22;19953;-85
2022/11/21 10:47:42;;;;;;;;;;;;;;;8.77;100.00;99736.84;6256549;22;19915;-85
2022/11/21 10:50:10;;;;;;;;;;;;;;;8.85;100.00;99732.56;6257098;22;19978;-91
2022/11/21 10:54:31;;;;;;;;;;;;;;;9.00;100.00;99726.38;6281613;22;19917;-91
2022/11/21 10:56:08;;;;;;;;;;;;;;;9.23;100.00;99721.16;6257703;22;19907;-88
2022/11/21 10:58:47;;;;;;;;;;;;;;;9.30;100.00;99711.53;6260863;22;19911;-88
2022/11/21 11:01:32;;;;;;;;;;;;;;;9.44;100.00;99708.16;6284017;22;19907;-88
2022/11/21 11:04:05;;;;;;;;;;;;;;;9.63;100.00;99709.50;6283370;22;19911;-90
2022/11/21 11:06:31;;;;;;;;;;;;;;;9.55;100.00;99702.44;6282022;22;19918;-89
2022/11/21 11:08:57;;;;;;;;;;;;;;;9.43;100.00;99698.56;6283727;22;19907;-91
2022/11/21 11:11:26;;;;;;;;;;;;;;;9.48;100.00;99690.13;6281986;22;20361;-86
2022/11/21 11:14:10;;;;;;;;;;;;;;;9.35;100.00;99688.00;6252864;22;19957;-88
2022/11/21 11:16:41;;;;;;;;;;;;;;;9.63;100.00;99691.81;6254688;22;20309;-90
2022/11/21 11:19:13;;;;;;;;;;;;;;;9.52;100.00;99702.78;6284728;22;19911;-87
2022/11/21 11:21:39;;;;;;;;;;;;;;;9.52;100.00;99702.78;6283819;22;19942;-88
2022/11/21 11:24:27;;;;;;;;;;;;;;;9.48;100.00;99698.84;6264414;22;19975;-88
2022/11/21 11:26:58;;;;;;;;;;;;;;;9.63;100.00;99691.81;6296286;22;19931;-90
2022/11/21 11:29:29;;;;;;;;;;;;;;;9.66;100.00;99691.47;6259602;22;19990;-88
2022/11/21 11:31:54;;;;;;;;;;;;;;;9.74;100.00;99694.03;6254994;22;19994;-90
2022/11/21 11:34:20;;;;;;;;;;;;;;;9.70;100.00;99692.75;6279913;22;19911;-89
2022/11/21 11:37:03;;;;;;;;;;;;;;;9.71;100.00;99683.81;6252315;22;19911;-87
2022/11/21 11:39:47;;;;;;;;;;;;;;;9.84;100.00;99684.03;6279007;22;19911;-88
2022/11/21 11:48:06;;;;;;;;;;;;;;;9.98;100.00;99668.38;6297062;22;19926;-87
2022/11/21 11:50:44;;;;;;;;;;;;;;;9.88;100.00;99665.97;6275215;22;19926;-88
2022/11/21 11:53:23;;;;;;;;;;;;;;;10.18;100.00;99673.00;6273140;22;19899;-88
2022/11/21 11:55:52;;;;;;;;;;;;;;;10.31;100.00;99678.50;6300757;22;19911;-90
2022/11/21 11:58:25;;;;;;;;;;;;;;;10.18;100.00;99670.38;6258982;22;20005;-87
2022/11/21 12:01:05;;;;;;;;;;;;;;;10.19;100.00;99666.72;6287527;22;19957;-89
2022/11/21 12:03:42;;;;;;;;;;;;;;;10.18;100.00;99667.72;6259545;22;19907;-91
2022/11/21 12:06:23;;;;;;;;;;;;;;;10.20;100.00;99664.91;6288805;22;19911;-88
2022/11/21 12:08:51;;;;;;;;;;;;;;;10.17;100.00;99667.91;6254900;22;20014;-91
2022/11/21 12:17:23;;;;;;;;;;;;;;;10.54;100.00;99659.88;6285523;22;20245;-88
2022/11/21 12:19:55;;;;;;;;;;;;;;;10.53;100.00;99657.44;6256486;22;19918;-92
2022/11/21 12:22:24;;;;;;;;;;;;;;;10.36;100.00;99647.03;6281240;22;19919;-87
2022/11/21 12:24:49;;;;;;;;;;;;;;;10.27;100.00;99649.94;6226997;22;20349;-88
2022/11/21 12:27:15;;;;;;;;;;;;;;;10.32;100.00;99650.22;6258347;22;19915;-87
2022/11/21 12:30:01;;;;;;;;;;;;;;;10.31;100.00;99640.59;6251970;22;19911;-89
2022/11/21 12:32:30;;;;;;;;;;;;;;;10.37;100.00;99635.41;6228193;22;19969;-87
2022/11/21 12:35:14;;;;;;;;;;;;;;;10.21;100.00;99626.81;6260142;22;19918;-85
2022/11/21 12:38:00;;;;;;;;;;;;;;;10.35;100.00;99628.66;6227458;22;20307;-87
2022/11/21 12:40:46;;;;;;;;;;;;;;;10.54;100.00;99632.59;6250905;22;19937;-88
2022/11/21 12:43:33;;;;;;;;;;;;;;;10.70;100.00;99616.50;6277992;22;19918;-87
2022/11/21 12:46:18;;;;;;;;;;;;;;;10.65;100.00;99609.09;6277934;22;19911;-87
2022/11/21 12:54:34;;;;;;;;;;;;;;;10.28;100.00;99594.13;6256629;22;20322;-85
2022/11/21 12:57:13;;;;;;;;;;;;;;;10.18;100.00;99579.50;6251121;22;19990;-87
2022/11/21 12:59:44;;;;;;;;;;;;;;;10.03;100.00;99570.72;6278557;22;19911;-86
2022/11/21 13:02:28;;;;;;;;;;;;;;;10.10;100.00;99576.94;6251545;22;20323;-85
2022/11/21 13:04:56;;;;;;;;;;;;;;;10.38;100.00;99562.91;6279183;22;19942;-87
2022/11/21 13:07:22;;;;;;;;;;;;;;;10.35;100.00;99554.50;6279802;22;20330;-85
2022/11/21 13:09:50;;;;;;;;;;;;;;;10.68;100.00;99545.13;6265535;22;19911;-86
2022/11/21 13:12:18;;;;;;;;;;;;;;;10.71;100.00;99549.22;6299289;22;19911;-85
2022/11/21 13:14:44;;;;;;;;;;;;;;;10.48;100.00;99543.22;6299854;22;19926;-85
2022/11/21 13:17:21;;;;;;;;;;;;;;;10.55;100.00;99534.38;6301891;22;19910;-83
2022/11/21 13:20:03;;;;;;;;;;;;;;;10.48;100.00;99544.06;6292398;22;19911;-85
2022/11/21 13:22:34;;;;;;;;;;;;;;;10.56;100.00;99541.31;6293623;22;19899;-85